Time;durP1;ratioP1;P1;durP2;ratioP2;P2;SDS_P1;SDS_P2;PMS_P1;PMS_P2;Temp;Humidity;BMP_temperature;BMP_pressure;BME280_temperature;BME280_humidity;BME280_pressure;Samples;Min_cycle;Max_cycle;Signal;HPM_P1;HPM_P2
2022/03/24 00:03:17;;;;;;;37.80;23.30;;;;;;;3.43;51.19;100997.89;214902;1274;139568;-79
2022/03/24 00:08:30;;;;;;;31.90;22.20;;;;;;;3.26;51.49;100997.72;214213;1274;140511;-71
2022/03/24 00:13:36;;;;;;;43.70;23.10;;;;;;;3.09;51.97;100989.86;214699;1273;139650;-72
2022/03/24 00:18:41;;;;;;;37.30;20.70;;;;;;;2.93;52.20;100991.63;213432;1274;139532;-66
2022/03/24 00:23:47;;;;;;;38.60;21.20;;;;;;;2.77;52.39;100989.92;214023;1274;141712;-73
2022/03/24 00:28:52;;;;;;;35.60;19.00;;;;;;;2.56;52.72;100991.96;214524;1274;140031;-78
2022/03/24 00:33:57;;;;;;;49.90;23.90;;;;;;;2.36;53.11;100992.42;213945;1274;139772;-77
2022/03/24 00:39:03;;;;;;;31.30;18.20;;;;;;;2.17;53.88;100991.12;213585;1274;140604;-77
2022/03/24 00:44:07;;;;;;;31.70;18.90;;;;;;;1.94;53.99;100987.45;213824;1274;142122;-77
2022/03/24 00:49:11;;;;;;;36.40;21.10;;;;;;;1.80;54.45;100992.15;214372;1273;140529;-76
2022/03/24 00:54:18;;;;;;;35.00;22.10;;;;;;;1.69;54.67;100996.83;214161;1274;140581;-72
2022/03/24 00:59:23;;;;;;;40.40;22.30;;;;;;;1.64;55.37;101000.45;215208;1274;142242;-77
2022/03/24 01:04:30;;;;;;;51.40;29.10;;;;;;;1.65;55.74;100994.94;214881;1274;139693;-78
2022/03/24 01:09:35;;;;;;;;;;;;;;;1.66;55.51;100995.38;214975;1274;139660;-78
2022/03/24 01:14:40;;;;;;;40.90;24.00;;;;;;;1.64;56.11;100995.05;215992;1274;126810;-74
2022/03/24 01:19:45;;;;;;;41.40;25.60;;;;;;;1.67;56.27;100992.48;216178;1272;140863;-82
2022/03/24 01:24:49;;;;;;;41.80;25.50;;;;;;;1.71;56.18;100987.94;215091;1274;140748;-71
2022/03/24 01:29:54;;;;;;;50.30;28.80;;;;;;;1.75;56.33;100990.24;216352;1273;141410;-68
2022/03/24 01:48:33;;;;;;;36.90;21.30;;;;;;;1.52;56.88;100991.35;214196;1274;139948;-72
2022/03/24 01:53:38;;;;;;;40.80;26.00;;;;;;;1.31;56.87;100992.05;215178;1273;140210;-72
2022/03/24 01:58:42;;;;;;;34.40;22.30;;;;;;;1.16;57.39;100994.27;214875;1274;140474;-73
2022/03/24 02:03:47;;;;;;;43.50;25.10;;;;;;;0.93;57.32;101000.70;216156;1274;141131;-72
2022/03/24 02:08:52;;;;;;;47.20;27.10;;;;;;;0.79;57.90;101004.48;215786;1273;140029;-73
2022/03/24 02:13:56;;;;;;;35.70;19.90;;;;;;;0.68;58.18;101003.20;216284;1273;139749;-78
2022/03/24 02:19:21;;;;;;;37.00;20.30;;;;;;;0.47;58.13;101004.13;215975;1274;140506;-74
2022/03/24 02:24:27;;;;;;;36.90;24.10;;;;;;;0.35;58.91;101010.09;216315;1274;140523;-76
2022/03/24 02:29:31;;;;;;;33.70;16.70;;;;;;;0.26;59.14;101006.65;216147;1274;139827;-76
2022/03/24 02:34:47;;;;;;;35.50;20.80;;;;;;;0.11;59.25;101005.38;215552;1274;140511;-74
2022/03/24 02:39:53;;;;;;;46.00;25.70;;;;;;;0.02;59.96;101014.96;215426;1274;141432;-77
2022/03/24 02:45:02;;;;;;;43.00;21.50;;;;;;;-0.06;60.23;101015.63;214950;1274;141912;-75
2022/03/24 02:50:09;;;;;;;35.50;21.00;;;;;;;-0.16;60.09;101016.23;214843;1274;141363;-78
2022/03/24 02:55:12;;;;;;;41.00;23.10;;;;;;;-0.29;60.52;101017.13;214664;1274;141888;-78
2022/03/24 03:00:16;;;;;;;51.30;26.10;;;;;;;-0.38;60.64;101022.48;215024;1273;140332;-78
2022/03/24 03:05:23;;;;;;;44.80;25.10;;;;;;;-0.45;61.00;101026.79;213396;1274;140546;-71
2022/03/24 03:10:28;;;;;;;44.90;24.80;;;;;;;-0.50;61.24;101030.46;214356;1274;141328;-80
2022/03/24 03:15:35;;;;;;;44.90;22.90;;;;;;;-0.56;61.54;101030.35;213892;1274;139986;-73
2022/03/24 03:20:40;;;;;;;;;;;;;;;-0.70;61.55;101034.30;214506;1274;139832;-79
2022/03/24 03:25:44;;;;;;;41.20;22.90;;;;;;;-0.89;61.83;101036.45;215260;1274;125880;-77
2022/03/24 03:30:48;;;;;;;38.50;23.60;;;;;;;-0.99;62.05;101039.92;214161;1274;140636;-78
2022/03/24 03:35:53;;;;;;;44.20;24.60;;;;;;;-1.06;62.42;101043.79;214367;1274;140582;-79
2022/03/24 03:40:59;;;;;;;48.40;26.10;;;;;;;-1.09;62.54;101037.78;214624;1273;140121;-80
2022/03/24 03:46:04;;;;;;;52.60;26.90;;;;;;;-1.15;62.68;101036.91;214677;1273;141475;-71
2022/03/24 03:51:08;;;;;;;42.70;26.40;;;;;;;-1.19;62.85;101041.25;213644;1274;141154;-77
2022/03/24 03:56:12;;;;;;;45.70;25.00;;;;;;;-1.25;63.12;101036.52;214573;1273;140661;-81
2022/03/24 04:01:17;;;;;;;60.70;32.20;;;;;;;-1.36;63.18;101036.94;216068;1272;140812;-82
2022/03/24 04:06:22;;;;;;;45.00;24.80;;;;;;;-1.45;63.18;101039.44;214504;1274;142902;-77
2022/03/24 04:11:26;;;;;;;53.30;28.30;;;;;;;-1.56;63.43;101041.59;213991;1274;141528;-73
2022/03/24 04:16:30;;;;;;;59.40;31.70;;;;;;;-1.62;63.84;101040.63;214735;1274;141928;-70
2022/03/24 04:21:35;;;;;;;54.80;31.00;;;;;;;-1.66;63.98;101038.83;215349;1273;140507;-71
2022/03/24 04:26:39;;;;;;;54.80;29.90;;;;;;;-1.70;63.95;101037.80;216123;1273;140474;-72
2022/03/24 04:31:45;;;;;;;58.90;32.70;;;;;;;-1.71;64.27;101044.84;216097;1273;140641;-66
2022/03/24 04:36:50;;;;;;;50.10;28.20;;;;;;;-1.73;64.32;101048.45;215897;1274;140635;-68
2022/03/24 04:41:55;;;;;;;54.10;27.30;;;;;;;-1.78;64.37;101041.88;215797;1273;140143;-71
2022/03/24 04:47:00;;;;;;;52.00;27.70;;;;;;;-1.84;64.50;101048.18;214838;1274;160518;-70
2022/03/24 04:52:07;;;;;;;47.80;24.90;;;;;;;-1.83;64.91;101048.94;214881;1273;142183;-70
2022/03/24 04:57:12;;;;;;;98.00;38.50;;;;;;;-1.83;65.00;101048.23;214645;1274;141825;-70
2022/03/24 05:02:17;;;;;;;104.50;47.90;;;;;;;-1.83;65.10;101050.70;214617;1276;139945;-73
2022/03/24 05:07:22;;;;;;;51.40;29.80;;;;;;;-1.81;65.45;101048.23;215714;1274;141325;-82
2022/03/24 05:12:26;;;;;;;55.80;28.50;;;;;;;-1.71;65.74;101055.48;215542;1273;140529;-73
2022/03/24 05:17:30;;;;;;;65.50;28.80;;;;;;;-1.60;66.01;101052.54;213720;1274;141270;-72
2022/03/24 05:22:35;;;;;;;43.60;26.30;;;;;;;-1.55;65.87;101056.66;213542;1274;141016;-72
2022/03/24 05:27:40;;;;;;;50.10;27.50;;;;;;;-1.49;65.97;101055.78;214318;1273;140999;-72
2022/03/24 05:32:44;;;;;;;53.40;28.30;;;;;;;-1.45;66.11;101058.22;215095;1274;141524;-78
2022/03/24 05:37:48;;;;;;;57.30;27.30;;;;;;;-1.37;66.38;101060.91;214033;1274;139861;-71
2022/03/24 05:42:53;;;;;;;58.00;32.30;;;;;;;-1.19;66.55;101060.13;215730;1274;140072;-70
2022/03/24 05:48:01;;;;;;;77.60;40.40;;;;;;;-0.99;66.83;101063.52;214486;1274;142172;-74
2022/03/24 05:53:06;;;;;;;68.70;35.90;;;;;;;-0.76;66.61;101068.84;213024;1273;141022;-68
2022/03/24 05:58:11;;;;;;;68.90;41.50;;;;;;;-0.47;66.82;101074.26;214879;1274;140079;-66
2022/03/24 06:03:17;;;;;;;80.20;45.40;;;;;;;-0.19;67.02;101072.74;215258;1274;141903;-72
2022/03/24 06:08:21;;;;;;;80.20;44.40;;;;;;;0.06;67.07;101073.12;214688;1274;140287;-71
2022/03/24 06:13:26;;;;;;;74.70;42.10;;;;;;;0.30;67.30;101072.73;214797;1274;140447;-76
2022/03/24 06:18:32;;;;;;;72.30;39.10;;;;;;;0.56;67.39;101080.73;214682;1274;140453;-75
2022/03/24 06:23:37;;;;;;;78.00;43.20;;;;;;;0.93;67.13;101079.45;215568;1273;141909;-70
2022/03/24 06:28:42;;;;;;;81.20;44.00;;;;;;;1.27;67.22;101077.36;216017;1274;140372;-74
2022/03/24 06:33:45;;;;;;;76.60;41.80;;;;;;;1.58;67.33;101081.00;215125;1274;140606;-73
2022/03/24 06:38:49;;;;;;;77.90;43.50;;;;;;;1.86;67.13;101087.26;216067;1274;143367;-77
2022/03/24 06:43:59;;;;;;;69.40;37.80;;;;;;;2.14;66.66;101092.76;214374;1274;141732;-77
2022/03/24 06:49:04;;;;;;;62.90;38.20;;;;;;;2.42;66.30;101100.66;214080;1274;140313;-72
2022/03/24 06:54:08;;;;;;;66.60;41.20;;;;;;;2.65;65.72;101100.34;215186;1274;140488;-71
2022/03/24 06:59:13;;;;;;;58.50;35.20;;;;;;;2.88;65.30;101103.67;214339;1275;139870;-71
2022/03/24 07:04:18;;;;;;;55.40;32.70;;;;;;;3.10;65.15;101105.27;214815;1274;140092;-75
2022/03/24 07:09:23;;;;;;;44.90;28.10;;;;;;;3.36;64.99;101105.13;214206;1274;141171;-71
2022/03/24 07:14:28;;;;;;;49.90;28.70;;;;;;;3.94;64.74;101107.99;214195;1274;142756;-69
2022/03/24 07:19:33;;;;;;;39.60;25.60;;;;;;;5.07;64.22;101106.27;214417;1274;141487;-68
2022/03/24 07:24:38;;;;;;;43.30;25.80;;;;;;;6.78;62.66;101105.63;213983;1274;220213;-71
2022/03/24 07:29:45;;;;;;;44.30;26.40;;;;;;;8.53;60.67;101102.88;213403;1274;141150;-73
2022/03/24 07:34:49;;;;;;;42.50;25.40;;;;;;;10.08;58.36;101096.85;213927;1274;140580;-75
2022/03/24 07:39:55;;;;;;;36.70;26.20;;;;;;;11.32;56.13;101093.47;214603;1274;140392;-74
2022/03/24 07:45:01;;;;;;;36.20;22.10;;;;;;;11.99;54.17;101097.08;213804;1274;231027;-68
2022/03/24 07:50:08;;;;;;;;;;;;;;;12.38;52.51;101097.54;213885;1274;139741;-73
2022/03/24 07:55:15;;;;;;;27.40;16.70;;;;;;;12.51;50.89;101101.26;214327;1274;125829;-74
2022/03/24 08:00:20;;;;;;;25.50;17.90;;;;;;;12.58;49.58;101101.83;214383;1274;139801;-75
2022/03/24 08:05:25;;;;;;;30.20;16.90;;;;;;;12.65;48.94;101101.91;214499;1274;140677;-78
2022/03/24 08:10:29;;;;;;;23.00;16.80;;;;;;;12.67;48.29;101102.02;214786;1274;140598;-75
2022/03/24 08:15:36;;;;;;;27.40;16.40;;;;;;;12.66;47.55;101098.79;214547;1273;140033;-79
2022/03/24 08:20:42;;;;;;;25.20;16.80;;;;;;;12.57;47.15;101096.33;214910;1274;140789;-77
2022/03/24 08:25:46;;;;;;;20.40;15.00;;;;;;;12.57;46.47;101098.34;216049;1274;141831;-78
2022/03/24 08:30:51;;;;;;;27.20;17.40;;;;;;;12.53;45.97;101096.19;215093;1274;140781;-75
2022/03/24 08:35:55;;;;;;;20.20;14.50;;;;;;;12.56;45.87;101093.53;216060;1274;139940;-73
2022/03/24 08:40:58;;;;;;;22.20;16.00;;;;;;;12.66;45.46;101091.70;216054;1274;140231;-69
2022/03/24 08:46:03;;;;;;;24.20;17.40;;;;;;;12.79;45.44;101092.90;215933;1274;141167;-80
2022/03/24 08:51:07;;;;;;;28.40;16.50;;;;;;;12.94;44.86;101098.17;215192;1274;141154;-74
2022/03/24 08:56:11;;;;;;;26.50;16.20;;;;;;;12.94;44.76;101092.45;215521;1274;140443;-69
2022/03/24 09:01:16;;;;;;;24.90;15.30;;;;;;;13.03;44.50;101092.98;214790;1274;141915;-72
2022/03/24 09:06:23;;;;;;;16.50;13.00;;;;;;;13.22;43.88;101092.76;214553;1274;140359;-71
2022/03/24 09:11:27;;;;;;;18.30;11.10;;;;;;;13.37;43.45;101095.98;213824;1274;142881;-72
2022/03/24 09:16:32;;;;;;;16.00;11.90;;;;;;;13.39;42.20;101091.59;214326;1274;140046;-67
2022/03/24 09:21:37;;;;;;;35.60;23.00;;;;;;;13.44;42.07;101091.58;213570;1274;140650;-72
2022/03/24 09:26:42;;;;;;;18.20;12.50;;;;;;;13.48;41.99;101090.89;213432;1274;140784;-72
2022/03/24 09:31:48;;;;;;;16.70;12.20;;;;;;;13.62;42.23;101093.31;215002;1274;141067;-72
2022/03/24 09:36:52;;;;;;;19.20;13.70;;;;;;;13.83;41.41;101092.54;214241;1274;139776;-71
2022/03/24 09:41:57;;;;;;;11.40;9.30;;;;;;;14.01;41.21;101088.21;213698;1274;139751;-73
2022/03/24 09:47:01;;;;;;;11.20;7.90;;;;;;;14.22;40.67;101083.92;214194;1274;140484;-74
2022/03/24 09:52:06;;;;;;;22.70;13.70;;;;;;;14.35;39.92;101083.27;214385;1274;139774;-70
2022/03/24 09:57:12;;;;;;;17.10;12.10;;;;;;;14.39;39.84;101079.15;214353;1274;284293;-72
2022/03/24 10:02:17;;;;;;;12.20;8.90;;;;;;;14.55;39.73;101074.33;214804;1274;140153;-72
2022/03/24 10:07:25;;;;;;;12.00;7.70;;;;;;;14.71;39.41;101075.00;214517;1274;140212;-72
2022/03/24 10:12:38;;;;;;;14.10;7.90;;;;;;;14.67;38.37;101076.85;214745;1274;140352;-73
2022/03/24 10:17:51;;;;;;;18.50;10.20;;;;;;;14.66;38.24;101079.14;214370;1274;139924;-72
2022/03/24 10:23:02;;;;;;;12.10;9.30;;;;;;;14.68;38.14;101082.53;214771;1274;141771;-70
2022/03/24 10:28:21;;;;;;;11.70;8.50;;;;;;;14.62;37.78;101079.29;214809;1274;140570;-72
2022/03/24 10:33:31;;;;;;;14.80;11.00;;;;;;;14.66;37.86;101076.76;213876;1274;143049;-73
2022/03/24 10:38:37;;;;;;;15.50;11.10;;;;;;;14.64;37.61;101076.50;214298;1274;141460;-74
2022/03/24 10:43:42;;;;;;;9.20;8.30;;;;;;;14.72;37.77;101068.42;214557;1274;141636;-73
2022/03/24 10:48:53;;;;;;;12.10;8.40;;;;;;;14.69;37.19;101069.80;215601;1274;141611;-67
2022/03/24 10:54:19;;;;;;;13.10;8.30;;;;;;;14.63;36.72;101070.67;216022;1274;141062;-72
2022/03/24 10:59:30;;;;;;;11.90;8.50;;;;;;;14.62;36.48;101067.86;215341;1274;141147;-71
2022/03/24 11:04:36;;;;;;;9.10;6.30;;;;;;;14.67;36.52;101068.30;216097;1274;140367;-73
2022/03/24 11:09:45;;;;;;;7.20;5.20;;;;;;;14.81;36.32;101059.21;214831;1274;141096;-72
2022/03/24 11:14:51;;;;;;;7.50;5.50;;;;;;;14.80;35.84;101054.89;215208;1274;141807;-73
2022/03/24 11:20:04;;;;;;;5.60;5.20;;;;;;;14.85;35.80;101051.47;215386;1274;141496;-79
2022/03/24 11:25:09;;;;;;;8.10;7.10;;;;;;;14.98;35.72;101044.60;213721;1273;141447;-70
2022/03/24 11:30:15;;;;;;;10.40;6.40;;;;;;;14.96;35.26;101044.48;213995;1274;140237;-74
2022/03/24 11:35:21;;;;;;;7.60;6.10;;;;;;;14.86;35.25;101033.15;214834;1274;141254;-73
2022/03/24 11:40:33;;;;;;;8.70;6.20;;;;;;;14.96;35.53;101032.41;213734;1274;143475;-73
2022/03/24 11:46:02;;;;;;;9.10;5.60;;;;;;;15.09;35.46;101028.15;214536;1274;141650;-75
2022/03/24 11:51:27;;;;;;;9.50;6.40;;;;;;;15.17;35.23;101027.38;213925;1274;142052;-74
2022/03/24 11:56:33;;;;;;;13.80;6.60;;;;;;;15.11;34.82;101028.64;213820;1274;142713;-76
2022/03/24 12:01:38;;;;;;;13.80;7.10;;;;;;;15.07;35.27;101020.27;213677;1274;141101;-75
2022/03/24 12:06:48;;;;;;;10.40;7.00;;;;;;;15.05;35.21;101018.61;214283;1274;139882;-76
2022/03/24 12:12:02;;;;;;;9.00;6.90;;;;;;;15.05;34.88;101014.15;214812;1272;141224;-75
2022/03/24 12:17:19;;;;;;;17.30;7.80;;;;;;;15.00;34.41;101009.53;213849;1274;141569;-77
2022/03/24 12:22:28;;;;;;;7.00;5.40;;;;;;;14.90;34.68;101005.30;213845;1274;140712;-77
2022/03/24 12:27:53;;;;;;;8.80;5.90;;;;;;;14.81;34.58;101002.91;215249;1274;141770;-80
2022/03/24 12:33:07;;;;;;;11.00;5.90;;;;;;;14.79;34.79;101003.45;213463;1274;140977;-75
2022/03/24 12:38:28;;;;;;;9.00;6.80;;;;;;;14.69;34.22;100998.04;214576;1274;142938;-69
2022/03/24 12:43:54;;;;;;;5.80;5.20;;;;;;;14.64;34.53;100996.69;215199;1274;141514;-73
2022/03/24 12:49:06;;;;;;;9.60;7.30;;;;;;;14.70;34.03;100990.66;215717;1274;139976;-71
2022/03/24 12:54:19;;;;;;;14.30;6.90;;;;;;;14.55;34.23;100987.81;216025;1274;139941;-70
2022/03/24 12:59:27;;;;;;;6.30;5.20;;;;;;;14.54;34.55;100980.98;216026;1274;140754;-72
2022/03/24 13:04:37;;;;;;;11.80;6.00;;;;;;;14.57;34.50;100978.70;215830;1274;140750;-76
2022/03/24 13:09:41;;;;;;;6.00;5.20;;;;;;;14.57;34.41;100975.53;216245;1274;139587;-82
2022/03/24 13:14:48;;;;;;;6.50;4.70;;;;;;;14.62;34.33;100973.61;215224;1274;141374;-79
2022/03/24 13:19:56;;;;;;;;;;;;;;;14.56;33.94;100963.91;215939;1274;140264;-79
2022/03/24 13:25:10;;;;;;;7.20;4.20;;;;;;;14.53;33.83;100961.27;215031;1274;126693;-78
2022/03/24 13:30:17;;;;;;;11.80;6.10;;;;;;;14.54;33.79;100958.07;214723;1274;139693;-74
2022/03/24 13:35:24;;;;;;;12.80;6.70;;;;;;;14.48;33.93;100955.60;214543;1274;141910;-72
2022/03/24 13:40:31;;;;;;;11.80;6.90;;;;;;;14.44;33.99;100946.82;214743;1274;140727;-74
2022/03/24 13:45:40;;;;;;;12.90;6.90;;;;;;;14.43;34.25;100944.20;215142;1274;142166;-76
2022/03/24 13:50:56;;;;;;;11.40;6.90;;;;;;;14.38;33.96;100942.20;214410;1274;140429;-74
2022/03/24 13:56:12;;;;;;;10.20;5.90;;;;;;;14.34;33.91;100937.30;213984;1272;143458;-74
2022/03/24 14:01:17;;;;;;;13.20;6.20;;;;;;;14.41;34.14;100934.48;213611;1274;144636;-75
2022/03/24 14:06:24;;;;;;;7.60;5.30;;;;;;;14.37;33.93;100933.63;214085;1274;142138;-72
2022/03/24 14:11:30;;;;;;;10.60;6.30;;;;;;;14.34;34.10;100925.89;213439;1274;141262;-71
2022/03/24 14:16:39;;;;;;;15.00;6.20;;;;;;;14.32;34.20;100921.22;214584;1274;141916;-74
2022/03/24 14:21:50;;;;;;;8.60;6.40;;;;;;;14.27;34.12;100919.54;213752;1274;142149;-70
2022/03/24 14:27:10;;;;;;;6.90;5.70;;;;;;;14.18;33.85;100919.56;214614;1274;140043;-76
2022/03/24 14:32:23;;;;;;;12.30;6.20;;;;;;;14.11;33.80;100912.95;214604;1274;139910;-72
2022/03/24 14:37:39;;;;;;;6.80;5.40;;;;;;;14.06;34.03;100914.66;213641;1274;141904;-72
2022/03/24 14:42:47;;;;;;;8.20;5.40;;;;;;;13.98;33.69;100911.00;214969;1274;141526;-76
2022/03/24 14:47:58;;;;;;;8.30;6.20;;;;;;;13.86;34.06;100907.44;215058;1274;140509;-72
2022/03/24 14:53:09;;;;;;;6.40;4.80;;;;;;;13.75;34.07;100901.57;214814;1274;140715;-68
2022/03/24 14:58:16;;;;;;;6.90;5.90;;;;;;;13.72;33.90;100893.39;216062;1274;140115;-72
2022/03/24 15:03:26;;;;;;;7.90;5.60;;;;;;;13.64;34.01;100887.55;216042;1276;142666;-75
2022/03/24 15:08:33;;;;;;;9.70;5.70;;;;;;;13.58;34.24;100886.64;215990;1274;141319;-68
2022/03/24 15:13:40;;;;;;;;;;;;;;;13.49;34.34;100886.79;215913;1273;140451;-71
2022/03/24 15:18:45;;;;;;;8.70;5.20;;;;;;;13.36;34.47;100883.14;215764;1273;127743;-71
2022/03/24 15:23:50;;;;;;;6.70;4.80;;;;;;;13.27;34.03;100885.80;215588;1274;139929;-71
2022/03/24 15:28:59;;;;;;;8.80;6.10;;;;;;;13.16;34.27;100886.45;214776;1274;141597;-72
2022/03/24 15:34:04;;;;;;;14.50;5.80;;;;;;;13.13;34.53;100885.44;213812;1274;141211;-69
2022/03/24 15:39:09;;;;;;;8.00;6.00;;;;;;;13.08;34.72;100882.24;214009;1277;140815;-70
2022/03/24 15:44:17;;;;;;;8.70;4.60;;;;;;;13.02;34.58;100882.10;214915;1274;140776;-71
2022/03/24 15:49:23;;;;;;;8.40;4.90;;;;;;;12.92;34.65;100880.14;214126;1274;139748;-70
2022/03/24 15:54:31;;;;;;;15.60;5.90;;;;;;;12.77;34.70;100881.58;214902;1274;141532;-71
2022/03/24 15:59:38;;;;;;;9.80;6.20;;;;;;;12.63;34.92;100883.63;213948;1274;140847;-71
2022/03/24 16:04:45;;;;;;;6.80;5.00;;;;;;;12.46;35.14;100879.23;213761;1274;140996;-75
2022/03/24 16:09:50;;;;;;;7.20;4.70;;;;;;;12.31;35.20;100876.23;213948;1274;141422;-74
2022/03/24 16:14:55;;;;;;;6.90;4.90;;;;;;;12.18;35.57;100882.05;213779;1273;141154;-74
2022/03/24 16:20:00;;;;;;;9.40;6.10;;;;;;;12.02;35.61;100883.27;214200;1274;141524;-73
2022/03/24 16:25:06;;;;;;;8.50;5.60;;;;;;;11.89;35.78;100882.46;213647;1274;143465;-78
2022/03/24 16:30:11;;;;;;;35.10;7.40;;;;;;;11.73;35.99;100876.20;215164;1274;140165;-79
2022/03/24 16:35:16;;;;;;;8.10;5.80;;;;;;;11.57;36.30;100876.25;214884;1274;151111;-72
2022/03/24 16:40:22;;;;;;;8.70;5.40;;;;;;;11.43;36.45;100877.49;215187;1273;139680;-75
2022/03/24 16:45:28;;;;;;;13.30;8.10;;;;;;;11.28;37.06;100884.45;214395;1274;140363;-80
2022/03/24 16:50:33;;;;;;;9.60;6.40;;;;;;;11.13;37.27;100882.30;213152;1273;141829;-66
2022/03/24 16:55:38;;;;;;;12.80;8.60;;;;;;;10.96;37.49;100883.41;215462;1274;140976;-77
2022/03/24 17:00:42;;;;;;;11.40;7.10;;;;;;;10.78;37.46;100886.52;214803;1274;140156;-78
2022/03/24 17:05:52;;;;;;;12.80;6.40;;;;;;;10.57;37.88;100887.30;215981;1274;141141;-76
2022/03/24 17:10:56;;;;;;;9.80;7.60;;;;;;;10.34;37.92;100891.23;216087;1274;139852;-75
2022/03/24 17:16:02;;;;;;;11.70;6.80;;;;;;;10.14;38.10;100895.17;216042;1274;141697;-71
2022/03/24 17:21:07;;;;;;;10.80;7.30;;;;;;;9.93;38.56;100902.31;215983;1274;140956;-74
2022/03/24 17:26:11;;;;;;;8.80;6.60;;;;;;;9.69;38.91;100900.95;216214;1274;140319;-75
2022/03/24 17:31:16;;;;;;;11.10;6.30;;;;;;;9.44;39.18;100897.87;215465;1273;139526;-78
2022/03/24 17:36:20;;;;;;;14.70;7.30;;;;;;;9.20;40.04;100900.34;214837;1274;141360;-78
2022/03/24 17:41:26;;;;;;;20.80;8.80;;;;;;;8.93;41.01;100907.84;215430;1274;140837;-76
2022/03/24 17:46:32;;;;;;;14.80;7.70;;;;;;;8.66;41.29;100907.91;214437;1273;140696;-74
2022/03/24 17:51:38;;;;;;;24.60;7.50;;;;;;;8.40;41.62;100908.96;214326;1274;141411;-71
2022/03/24 17:56:42;;;;;;;19.40;7.80;;;;;;;8.13;42.33;100908.95;213841;1274;139840;-71
2022/03/24 18:01:48;;;;;;;8.80;5.70;;;;;;;7.83;42.91;100907.98;214690;1273;139405;-68
2022/03/24 18:06:53;;;;;;;13.90;7.00;;;;;;;7.43;43.20;100907.75;214736;1274;139385;-68
2022/03/24 18:11:59;;;;;;;10.50;6.80;;;;;;;7.16;43.83;100911.55;213276;1274;139688;-72
2022/03/24 18:17:04;;;;;;;14.20;7.70;;;;;;;7.00;44.51;100908.73;213913;1274;141305;-80
2022/03/24 18:22:09;;;;;;;17.10;6.90;;;;;;;6.82;45.11;100912.46;213517;1274;139852;-79
2022/03/24 18:27:13;;;;;;;14.00;6.90;;;;;;;6.62;46.34;100915.35;214015;1274;141129;-74
2022/03/24 18:32:17;;;;;;;13.90;6.10;;;;;;;6.39;46.09;100918.67;214182;1274;140504;-74
2022/03/24 18:37:22;;;;;;;8.30;6.10;;;;;;;6.06;46.98;100922.11;213384;1272;139592;-70
2022/03/24 18:42:26;;;;;;;18.70;10.10;;;;;;;5.87;47.62;100918.98;213336;1274;139566;-69
2022/03/24 18:47:31;;;;;;;16.70;10.10;;;;;;;5.75;48.47;100921.30;215581;1274;140507;-82
2022/03/24 18:52:35;;;;;;;24.80;12.60;;;;;;;5.61;49.29;100922.98;214706;1274;140642;-82
2022/03/24 18:57:40;;;;;;;25.50;14.10;;;;;;;5.48;49.33;100928.27;215777;1273;140282;-76
2022/03/24 19:02:44;;;;;;;14.50;9.10;;;;;;;5.28;49.60;100924.98;215113;1273;139695;-72
2022/03/24 19:07:51;;;;;;;11.60;7.60;;;;;;;5.08;50.55;100927.92;215751;1273;139463;-72
2022/03/24 19:12:56;;;;;;;14.40;8.90;;;;;;;4.88;50.91;100928.95;216385;1272;140246;-79
2022/03/24 19:18:02;;;;;;;25.60;13.50;;;;;;;4.77;51.45;100927.31;215227;1272;141270;-74
2022/03/24 19:23:08;;;;;;;25.20;14.00;;;;;;;4.66;51.52;100932.93;216143;1274;140563;-77
2022/03/24 19:28:15;;;;;;;25.10;13.70;;;;;;;4.53;51.85;100934.38;216086;1274;140557;-77
2022/03/24 19:33:21;;;;;;;29.90;14.10;;;;;;;4.34;52.16;100934.31;216031;1274;140406;-75
2022/03/24 19:38:27;;;;;;;31.20;14.20;;;;;;;4.11;52.56;100933.77;215783;1274;141460;-76
2022/03/24 19:43:31;;;;;;;32.70;15.90;;;;;;;3.94;53.10;100937.73;214863;1274;140031;-77
2022/03/24 19:48:35;;;;;;;19.40;12.40;;;;;;;3.83;53.49;100934.88;215748;1272;140355;-69
2022/03/24 19:53:40;;;;;;;21.00;10.20;;;;;;;3.70;53.68;100932.24;214783;1274;140722;-77
2022/03/24 19:58:44;;;;;;;21.80;10.90;;;;;;;3.50;54.31;100930.60;214500;1274;142221;-80
2022/03/24 20:03:49;;;;;;;23.00;11.50;;;;;;;3.30;54.63;100928.27;214306;1274;141563;-77
2022/03/24 20:08:57;;;;;;;24.70;12.10;;;;;;;3.13;54.66;100928.63;213807;1274;140868;-77
2022/03/24 20:14:03;;;;;;;23.40;13.10;;;;;;;2.96;55.27;100929.52;214840;1274;140663;-69
2022/03/24 20:19:08;;;;;;;18.10;13.00;;;;;;;2.88;55.74;100932.06;214451;1273;139533;-77
2022/03/24 20:24:13;;;;;;;32.30;16.10;;;;;;;2.88;56.14;100927.73;214355;1274;140115;-77
2022/03/24 20:29:18;;;;;;;44.70;18.70;;;;;;;2.82;56.22;100925.86;213509;1274;140799;-76
2022/03/24 20:34:23;;;;;;;45.70;20.10;;;;;;;2.70;56.40;100930.95;213671;1274;140354;-75
2022/03/24 20:39:28;;;;;;;29.60;16.90;;;;;;;2.56;56.55;100927.58;214763;1272;139991;-79
2022/03/24 20:44:34;;;;;;;30.10;14.40;;;;;;;2.46;56.86;100926.57;213467;1274;141787;-76
2022/03/24 20:49:39;;;;;;;35.80;16.60;;;;;;;2.30;57.24;100929.35;214296;1274;153476;-75
2022/03/24 20:54:45;;;;;;;35.50;17.80;;;;;;;2.13;57.34;100935.39;213845;1274;139864;-78
2022/03/24 20:59:51;;;;;;;35.00;15.80;;;;;;;2.06;57.97;100935.77;214000;1274;140378;-78
2022/03/24 21:04:54;;;;;;;39.20;19.30;;;;;;;1.93;58.27;100936.64;215330;1273;140294;-71
2022/03/24 21:09:57;;;;;;;44.90;22.70;;;;;;;1.79;58.41;100935.11;215399;1273;141790;-81
2022/03/24 21:15:01;;;;;;;58.20;28.50;;;;;;;1.72;58.63;100933.83;215703;1274;140122;-74
2022/03/24 21:20:06;;;;;;;39.00;17.20;;;;;;;1.66;58.90;100927.98;216109;1273;140953;-73
2022/03/24 21:25:10;;;;;;;40.30;20.20;;;;;;;1.58;59.34;100929.80;215086;1273;142206;-74
2022/03/24 21:30:15;;;;;;;27.70;16.20;;;;;;;1.49;58.97;100933.22;216446;1272;139975;-78
2022/03/24 21:35:22;;;;;;;43.20;19.50;;;;;;;1.40;59.49;100928.22;216165;1274;141692;-75
2022/03/24 21:40:28;;;;;;;49.00;19.30;;;;;;;1.33;59.93;100929.84;215899;1274;140142;-75
2022/03/24 21:45:33;;;;;;;103.50;41.80;;;;;;;1.31;60.24;100932.51;214849;1274;140354;-74
2022/03/24 21:50:40;;;;;;;61.40;30.00;;;;;;;1.32;60.54;100935.80;215565;1275;140805;-77
2022/03/24 21:55:44;;;;;;;51.40;24.10;;;;;;;1.34;60.90;100936.59;214812;1274;537322;-71
2022/03/24 22:00:48;;;;;;;69.90;32.20;;;;;;;1.22;60.92;100934.27;214241;1274;139939;-76
2022/03/24 22:05:52;;;;;;;43.90;22.80;;;;;;;1.08;61.10;100934.27;215360;1273;140035;-66
2022/03/24 22:11:00;;;;;;;47.90;24.50;;;;;;;1.02;61.34;100933.73;214960;1273;140823;-68
2022/03/24 22:16:06;;;;;;;45.30;24.50;;;;;;;1.01;61.67;100935.77;214068;1274;141846;-72
2022/03/24 22:21:10;;;;;;;39.20;20.00;;;;;;;0.97;61.44;100933.98;214426;1274;140345;-71
2022/03/24 22:26:15;;;;;;;37.10;19.10;;;;;;;0.84;61.74;100930.83;214658;1274;139887;-77
2022/03/24 22:31:20;;;;;;;45.10;22.10;;;;;;;0.73;61.89;100926.98;214266;1274;140442;-68
2022/03/24 22:36:25;;;;;;;42.30;19.30;;;;;;;0.62;62.37;100926.65;214270;1274;141681;-66
2022/03/24 22:41:29;;;;;;;58.80;26.90;;;;;;;0.54;62.66;100929.30;213666;1274;139502;-74
2022/03/24 22:46:33;;;;;;;64.90;27.50;;;;;;;0.48;62.74;100925.67;214207;1274;139884;-74
2022/03/24 22:51:37;;;;;;;60.60;25.20;;;;;;;0.41;62.86;100923.17;213487;1274;141145;-67
2022/03/24 22:56:43;;;;;;;59.40;31.40;;;;;;;0.28;62.74;100925.67;214428;1274;140007;-69
2022/03/24 23:01:49;;;;;;;66.00;29.50;;;;;;;0.25;63.15;100922.34;213884;1274;140383;-72
2022/03/24 23:06:55;;;;;;;54.60;28.60;;;;;;;0.19;63.31;100921.13;215292;1273;140512;-69
2022/03/24 23:12:00;;;;;;;67.10;28.40;;;;;;;0.11;63.77;100921.15;214727;1274;140732;-70